sensor_id;sensor_type;location;lat;lon;timestamp;P1;durP1;ratioP1;P2;durP2;ratioP2
69170;SDS011;56279;47.902;12.308;2022-08-11T06:47:48;5.95;;;3.60;;
69170;SDS011;56279;47.902;12.308;2022-08-11T06:51:38;6.20;;;3.37;;
69170;SDS011;56279;47.902;12.308;2022-08-11T06:53:54;7.43;;;3.65;;
69170;SDS011;56279;47.902;12.308;2022-08-11T06:56:24;5.75;;;3.70;;
69170;SDS011;56279;47.902;12.308;2022-08-11T06:58:59;5.53;;;3.47;;
69170;SDS011;56279;47.902;12.308;2022-08-11T07:01:35;6.90;;;3.72;;
69170;SDS011;56279;47.902;12.308;2022-08-11T07:03:51;5.97;;;3.73;;
69170;SDS011;56279;47.902;12.308;2022-08-11T07:06:21;25.08;;;10.65;;
69170;SDS011;56279;47.902;12.308;2022-08-11T07:14:00;7.88;;;4.75;;
69170;SDS011;56279;47.902;12.308;2022-08-11T07:16:44;6.70;;;3.83;;
69170;SDS011;56279;47.902;12.308;2022-08-11T07:19:01;7.72;;;5.22;;
69170;SDS011;56279;47.902;12.308;2022-08-11T07:23:44;7.72;;;5.13;;
69170;SDS011;56279;47.902;12.308;2022-08-11T07:26:05;7.97;;;4.32;;
69170;SDS011;56279;47.902;12.308;2022-08-11T07:28:29;9.43;;;5.07;;
69170;SDS011;56279;47.902;12.308;2022-08-11T07:30:57;7.22;;;4.28;;
69170;SDS011;56279;47.902;12.308;2022-08-11T07:33:04;7.45;;;4.28;;
69170;SDS011;56279;47.902;12.308;2022-08-11T07:35:08;7.38;;;3.55;;
69170;SDS011;56279;47.902;12.308;2022-08-11T07:37:16;6.03;;;3.75;;
69170;SDS011;56279;47.902;12.308;2022-08-11T07:39:21;6.97;;;4.10;;
69170;SDS011;56279;47.902;12.308;2022-08-11T07:41:25;8.60;;;3.67;;
69170;SDS011;56279;47.902;12.308;2022-08-11T07:43:35;5.18;;;3.47;;
69170;SDS011;56279;47.902;12.308;2022-08-11T07:45:55;6.47;;;3.67;;
69170;SDS011;56279;47.902;12.308;2022-08-11T07:48:17;7.13;;;4.10;;
69170;SDS011;56279;47.902;12.308;2022-08-11T07:50:42;8.87;;;4.63;;
69170;SDS011;56279;47.902;12.308;2022-08-11T07:53:04;7.65;;;4.70;;
69170;SDS011;56279;47.902;12.308;2022-08-11T07:55:15;5.93;;;3.58;;
69170;SDS011;56279;47.902;12.308;2022-08-11T07:57:44;8.20;;;3.28;;
69170;SDS011;56279;47.902;12.308;2022-08-11T08:00:06;6.43;;;3.47;;
69170;SDS011;56279;47.902;12.308;2022-08-11T08:02:26;6.87;;;3.73;;
69170;SDS011;56279;47.902;12.308;2022-08-11T08:04:47;7.45;;;3.67;;
69170;SDS011;56279;47.902;12.308;2022-08-11T08:07:07;6.22;;;3.53;;
69170;SDS011;56279;47.902;12.308;2022-08-11T08:09:32;6.72;;;3.55;;
69170;SDS011;56279;47.902;12.308;2022-08-11T08:12:01;7.47;;;3.83;;
69170;SDS011;56279;47.902;12.308;2022-08-11T08:14:27;6.33;;;3.37;;
69170;SDS011;56279;47.902;12.308;2022-08-11T08:17:58;6.22;;;3.45;;
69170;SDS011;56279;47.902;12.308;2022-08-11T08:20:19;6.07;;;3.42;;
69170;SDS011;56279;47.902;12.308;2022-08-11T08:23:04;6.70;;;2.88;;
69170;SDS011;56279;47.902;12.308;2022-08-11T08:25:07;7.38;;;4.00;;
69170;SDS011;56279;47.902;12.308;2022-08-11T08:27:13;7.20;;;3.30;;
69170;SDS011;56279;47.902;12.308;2022-08-11T10:04:21;5.30;;;2.70;;
69170;SDS011;56279;47.902;12.308;2022-08-11T13:33:15;5.43;;;2.10;;
69170;SDS011;56279;47.902;12.308;2022-08-11T13:47:04;5.70;;;2.20;;
69170;SDS011;56279;47.902;12.308;2022-08-11T13:49:10;5.23;;;1.80;;
69170;SDS011;56279;47.902;12.308;2022-08-11T14:00:53;3.90;;;2.30;;
69170;SDS011;56279;47.902;12.308;2022-08-11T14:03:01;3.17;;;2.00;;
69170;SDS011;56279;47.902;12.308;2022-08-11T15:18:16;3.03;;;1.90;;
69170;SDS011;56279;47.902;12.308;2022-08-11T15:20:27;3.83;;;1.90;;
69170;SDS011;56279;47.902;12.308;2022-08-11T15:22:48;3.05;;;1.80;;
69170;SDS011;56279;47.902;12.308;2022-08-11T15:25:08;4.15;;;2.00;;
69170;SDS011;56279;47.902;12.308;2022-08-11T15:27:32;6.43;;;2.00;;
69170;SDS011;56279;47.902;12.308;2022-08-11T15:29:58;3.92;;;1.98;;
69170;SDS011;56279;47.902;12.308;2022-08-11T15:32:21;4.60;;;1.90;;
69170;SDS011;56279;47.902;12.308;2022-08-11T15:35:27;3.17;;;1.88;;
69170;SDS011;56279;47.902;12.308;2022-08-11T15:37:50;3.67;;;2.05;;
69170;SDS011;56279;47.902;12.308;2022-08-11T15:40:16;2.88;;;1.60;;
69170;SDS011;56279;47.902;12.308;2022-08-11T15:45:32;8.07;;;3.70;;
69170;SDS011;56279;47.902;12.308;2022-08-11T15:51:55;3.75;;;1.98;;
69170;SDS011;56279;47.902;12.308;2022-08-11T15:57:47;3.10;;;1.90;;
69170;SDS011;56279;47.902;12.308;2022-08-11T16:04:35;8.35;;;2.55;;
69170;SDS011;56279;47.902;12.308;2022-08-11T16:16:53;3.37;;;1.90;;
69170;SDS011;56279;47.902;12.308;2022-08-11T16:26:54;3.45;;;1.80;;
69170;SDS011;56279;47.902;12.308;2022-08-11T16:32:15;3.50;;;1.90;;
69170;SDS011;56279;47.902;12.308;2022-08-11T16:40:46;4.00;;;1.90;;
69170;SDS011;56279;47.902;12.308;2022-08-11T16:44:53;5.22;;;1.70;;
69170;SDS011;56279;47.902;12.308;2022-08-11T16:52:42;5.00;;;1.60;;
69170;SDS011;56279;47.902;12.308;2022-08-11T16:54:47;5.13;;;2.10;;
69170;SDS011;56279;47.902;12.308;2022-08-11T16:57:23;3.80;;;1.67;;
69170;SDS011;56279;47.902;12.308;2022-08-11T16:59:37;4.32;;;1.90;;
69170;SDS011;56279;47.902;12.308;2022-08-11T17:02:18;3.23;;;1.57;;
69170;SDS011;56279;47.902;12.308;2022-08-11T17:04:59;4.30;;;1.63;;
69170;SDS011;56279;47.902;12.308;2022-08-11T17:08:29;4.00;;;1.60;;
69170;SDS011;56279;47.902;12.308;2022-08-11T17:14:53;4.78;;;1.70;;
69170;SDS011;56279;47.902;12.308;2022-08-11T17:17:07;4.10;;;2.00;;
69170;SDS011;56279;47.902;12.308;2022-08-11T17:19:51;5.07;;;1.88;;
69170;SDS011;56279;47.902;12.308;2022-08-11T17:25:38;4.13;;;1.88;;
69170;SDS011;56279;47.902;12.308;2022-08-11T17:27:44;4.20;;;2.10;;
69170;SDS011;56279;47.902;12.308;2022-08-11T17:30:08;6.07;;;1.60;;
69170;SDS011;56279;47.902;12.308;2022-08-11T17:32:49;3.22;;;1.88;;
69170;SDS011;56279;47.902;12.308;2022-08-11T17:35:51;4.60;;;1.75;;
69170;SDS011;56279;47.902;12.308;2022-08-11T17:37:53;2.80;;;1.60;;
69170;SDS011;56279;47.902;12.308;2022-08-11T17:40:07;3.47;;;2.10;;
69170;SDS011;56279;47.902;12.308;2022-08-11T17:42:16;2.90;;;1.80;;
69170;SDS011;56279;47.902;12.308;2022-08-11T17:44:50;5.15;;;1.77;;
69170;SDS011;56279;47.902;12.308;2022-08-11T17:47:20;3.78;;;1.77;;
69170;SDS011;56279;47.902;12.308;2022-08-11T17:49:41;6.75;;;1.80;;
69170;SDS011;56279;47.902;12.308;2022-08-11T17:51:56;5.25;;;2.20;;
69170;SDS011;56279;47.902;12.308;2022-08-11T17:54:19;3.27;;;1.77;;
69170;SDS011;56279;47.902;12.308;2022-08-11T17:56:50;5.07;;;2.05;;
69170;SDS011;56279;47.902;12.308;2022-08-11T17:59:11;4.38;;;2.13;;
69170;SDS011;56279;47.902;12.308;2022-08-11T18:01:33;3.58;;;1.98;;
69170;SDS011;56279;47.902;12.308;2022-08-11T18:03:37;3.20;;;2.00;;
69170;SDS011;56279;47.902;12.308;2022-08-11T18:06:08;4.53;;;2.10;;
69170;SDS011;56279;47.902;12.308;2022-08-11T18:08:15;5.05;;;1.90;;
69170;SDS011;56279;47.902;12.308;2022-08-11T18:10:37;4.60;;;1.88;;
69170;SDS011;56279;47.902;12.308;2022-08-11T18:12:59;4.40;;;1.88;;
69170;SDS011;56279;47.902;12.308;2022-08-11T18:15:19;3.92;;;1.90;;
69170;SDS011;56279;47.902;12.308;2022-08-11T18:17:40;4.43;;;1.90;;
69170;SDS011;56279;47.902;12.308;2022-08-11T18:20:03;3.80;;;1.95;;
69170;SDS011;56279;47.902;12.308;2022-08-11T18:22:35;5.55;;;2.47;;
69170;SDS011;56279;47.902;12.308;2022-08-11T18:25:19;4.75;;;2.00;;
69170;SDS011;56279;47.902;12.308;2022-08-11T18:27:42;4.47;;;2.22;;
69170;SDS011;56279;47.902;12.308;2022-08-11T18:30:04;4.73;;;2.23;;
69170;SDS011;56279;47.902;12.308;2022-08-11T18:32:26;5.13;;;2.08;;
69170;SDS011;56279;47.902;12.308;2022-08-11T18:34:51;3.58;;;2.05;;
69170;SDS011;56279;47.902;12.308;2022-08-11T18:37:18;4.97;;;1.80;;
69170;SDS011;56279;47.902;12.308;2022-08-11T18:39:43;3.85;;;2.17;;
69170;SDS011;56279;47.902;12.308;2022-08-11T18:42:08;3.60;;;2.00;;
69170;SDS011;56279;47.902;12.308;2022-08-11T18:45:43;6.10;;;1.95;;
69170;SDS011;56279;47.902;12.308;2022-08-11T18:48:38;3.92;;;2.03;;
69170;SDS011;56279;47.902;12.308;2022-08-11T18:53:51;4.22;;;2.00;;
69170;SDS011;56279;47.902;12.308;2022-08-11T18:56:15;4.67;;;2.20;;
69170;SDS011;56279;47.902;12.308;2022-08-11T18:58:40;3.63;;;2.00;;
69170;SDS011;56279;47.902;12.308;2022-08-11T19:01:06;4.60;;;2.28;;
69170;SDS011;56279;47.902;12.308;2022-08-11T19:03:28;4.57;;;2.15;;
69170;SDS011;56279;47.902;12.308;2022-08-11T19:06:10;3.83;;;2.20;;
69170;SDS011;56279;47.902;12.308;2022-08-11T19:08:40;5.77;;;2.57;;
69170;SDS011;56279;47.902;12.308;2022-08-11T19:14:30;5.50;;;2.28;;
69170;SDS011;56279;47.902;12.308;2022-08-11T19:16:51;7.38;;;2.78;;
69170;SDS011;56279;47.902;12.308;2022-08-11T20:23:01;3.90;;;2.00;;
69170;SDS011;56279;47.902;12.308;2022-08-11T20:30:28;4.57;;;2.10;;
69170;SDS011;56279;47.902;12.308;2022-08-11T23:16:11;3.72;;;2.38;;
69170;SDS011;56279;47.902;12.308;2022-08-11T23:42:10;4.47;;;2.50;;
69170;SDS011;56279;47.902;12.308;2022-08-11T23:48:19;7.30;;;2.50;;
69170;SDS011;56279;47.902;12.308;2022-08-11T23:51:11;4.32;;;2.25;;
